METAR Data
IDs: Format: Raw Decoded Include TAF

Data at: 2028 UTC 25 Sep 2020

KC29 252015Z AUTO 19012G20KT 10SM CLR 26/12 A2984 RMK AO1 T02620116
KC29 251955Z AUTO 17013KT 10SM CLR 26/12 A2985 RMK AO1 T02620117
KC29 251935Z AUTO 18013G18KT 10SM CLR 26/12 A2985 RMK AO1 T02620119
KC29 251915Z AUTO 19014G25KT 10SM CLR 26/12 A2986 RMK AO1 T02610120
KC29 251855Z AUTO 19014G18KT 10SM CLR 26/12 A2987 RMK AO1 T02560121
KC29 251835Z AUTO 20012G17KT 10SM CLR 26/13 A2989 RMK AO1 T02550125
KC29 251815Z AUTO 18012G18KT 10SM CLR 25/13 A2990 RMK AO1 T02500126
KC29 251755Z AUTO 20010KT 10SM CLR 25/12 A2991 RMK AO1 T02470123 10247 20155
KC29 251735Z AUTO 20015G19KT 10SM CLR 24/12 A2991 RMK AO1 T02430124
KC29 251715Z AUTO 20014G21KT 10SM CLR 24/13 A2992 RMK AO1 T02410131
KC29 251655Z AUTO 21013G17KT 10SM CLR 24/13 A2992 RMK AO1 T02360128
KC29 251635Z AUTO 20017G20KT 10SM CLR 23/13 A2993 RMK AO1 T02330125
KC29 251615Z AUTO 19011G15KT 10SM CLR 24/13 A2993 RMK AO1 T02350134
KC29 251555Z AUTO 21013G17KT 10SM CLR 23/13 A2994 RMK AO1 T02280125
KC29 251535Z AUTO 19011G17KT 10SM CLR 22/13 A2994 RMK AO1 T02210133
KC29 251515Z AUTO 19007G11KT 10SM CLR 22/14 A2995 RMK AO1 T02150135
KC29 251455Z AUTO 21006KT 10SM CLR 21/14 A2996 RMK AO1 T02090138
KC29 251435Z AUTO 22009KT 10SM CLR 20/13 A2995 RMK AO1 T01990134
KC29 251415Z AUTO 22008KT 10SM CLR 19/13 A2995 RMK AO1 T01910133
KC29 251355Z AUTO 21005KT 10SM CLR 19/13 A2995 RMK AO1 T01850132
KC29 251335Z AUTO 22004KT 10SM CLR 18/13 A2995 RMK AO1 T01770129
KC29 251315Z AUTO 24004KT 10SM CLR 17/13 A2995 RMK AO1 T01710128
KC29 251255Z AUTO 23004KT 10SM CLR 17/13 A2994 RMK AO1 T01660126
KC29 251235Z AUTO 22003KT 10SM CLR 16/12 A2994 RMK AO1 T01600123
KC29 251215Z AUTO 22006KT 10SM CLR 16/12 A2994 RMK AO1 T01550122
KC29 251155Z AUTO 22004KT 10SM CLR 16/12 A2994 RMK AO1 70006 T01550122 10187 20152
KC29 251135Z AUTO 25003KT 10SM CLR 16/12 A2994 RMK AO1 T01570121
KC29 251115Z AUTO 24003KT 10SM CLR 16/12 A2993 RMK AO1 T01570122
KC29 251055Z AUTO 23003KT 10SM CLR 16/12 A2993 RMK AO1 T01620122
KC29 251035Z AUTO 00000KT 10SM CLR 17/12 A2993 RMK AO1 T01650123
KC29 251015Z AUTO 24003KT 10SM CLR 17/12 A2993 RMK AO1 T01690122
KC29 250955Z AUTO 23004KT 10SM CLR 17/12 A2993 RMK AO1 T01670123
KC29 250935Z AUTO 22004KT 10SM CLR 17/13 A2993 RMK AO1 T01710125
KC29 250915Z AUTO 21005KT 10SM SCT047 18/13 A2992 RMK AO1 T01750125
KC29 250855Z AUTO 21006KT 10SM BKN047 18/13 A2991 RMK AO1 T01760126
KC29 250835Z AUTO 22006KT 10SM OVC047 18/13 A2991 RMK AO1 T01750127
KC29 250815Z AUTO 22006KT 10SM SCT047 18/13 A2991 RMK AO1 T01760126
KC29 250755Z AUTO 23005KT 10SM CLR 18/13 A2991 RMK AO1 T01760126
KC29 250735Z AUTO 22006KT 10SM CLR 18/13 A2991 RMK AO1 T01760126
KC29 250715Z AUTO 23005KT 10SM CLR 18/13 A2991 RMK AO1 T01800127
KC29 250655Z AUTO 23006KT 10SM CLR 18/13 A2991 RMK AO1 T01810128
KC29 250635Z AUTO 23004KT 10SM CLR 18/13 A2991 RMK AO1 T01800130
KC29 250615Z AUTO 23005KT 10SM CLR 18/13 A2990 RMK AO1 T01820131
KC29 250555Z AUTO 22005KT 10SM CLR 19/13 A2990 RMK AO1 T01870131 10207 20177 402400128
KC29 250535Z AUTO 21007KT 10SM CLR 19/13 A2990 RMK AO1 T01900133
KC29 250515Z AUTO 20005KT 10SM CLR 19/14 A2990 RMK AO1 T01900135
KC29 250455Z AUTO 19007KT 10SM CLR 19/14 A2990 RMK AO1 T01910138
KC29 250435Z AUTO 19008KT 10SM SCT050 20/14 A2990 RMK AO1 T01960140
KC29 250415Z AUTO 20008KT 10SM SCT050 20/14 A2990 RMK AO1 T01980141
KC29 250355Z AUTO 19008KT 10SM BKN048 BKN055 BKN065 20/15 A2990 RMK AO1 T02000145
KC29 250335Z AUTO 20006KT 10SM SCT048 BKN050 OVC080 20/15 A2990 RMK AO1 T01990146
KC29 250315Z AUTO 19007KT 10SM BKN050 OVC060 20/15 A2990 RMK AO1 T02010147
KC29 250255Z AUTO 19005KT 10SM OVC048 20/15 A2990 RMK AO1 T02000150
KC29 250235Z AUTO 00000KT 10SM BKN050 BKN055 BKN070 19/15 A2990 RMK AO1 T01890154
KC29 250215Z AUTO 00000KT 10SM SCT050 18/15 A2989 RMK AO1 T01780154
KC29 250155Z AUTO 00000KT 10SM SCT050 19/15 A2989 RMK AO1 T01870154
KC29 250135Z AUTO 00000KT 10SM OVC050 19/16 A2989 RMK AO1 T01910160
KC29 250115Z AUTO 00000KT 10SM BKN050 OVC060 20/16 A2989 RMK AO1 T01960160
KC29 250055Z AUTO 00000KT 10SM BKN050 20/16 A2988 RMK AO1 T01970159
KC29 250035Z AUTO 17003KT 10SM SCT080 20/16 A2988 RMK AO1 T02010161
KC29 250015Z AUTO 00000KT 10SM SCT060 SCT070 SCT090 21/17 A2988 RMK AO1 T02060167
KC29 242355Z AUTO 17003KT 10SM BKN060 BKN070 OVC080 20/19 A2988 RMK AO1 P0001 60006 T02020186 10240 20200
KC29 242335Z AUTO 00000KT 10SM OVC060 20/18 A2988 RMK AO1 P0001 T02000184
KC29 242315Z AUTO 00000KT 10SM SCT047 BKN060 BKN070 20/18 A2988 RMK AO1 T02000182
KC29 242255Z AUTO 00000KT 10SM SCT047 SCT060 BKN110 20/18 A2988 RMK AO1 P0003 T02030178
KC29 242235Z AUTO 14004KT 10SM SCT060 SCT080 BKN110 21/18 A2987 RMK AO1 P0002 T02050179
KC29 242215Z AUTO 00000KT 10SM BKN060 OVC070 20/18 A2988 RMK AO1 P0001 T02020175
KC29 242155Z AUTO 28004KT 7SM SCT036 BKN070 OVC080 21/17 A2987 RMK AO1 P0002 T02120165
KC29 242135Z AUTO 22008KT 10SM SCT033 OVC070 23/16 A2987 RMK AO1 T02260155
KC29 242115Z AUTO 21008KT 10SM SCT033 BKN039 OVC090 23/15 A2987 RMK AO1 T02300153
KC29 242055Z AUTO 21009G16KT 10SM BKN036 OVC110 23/15 A2986 RMK AO1 T02340154
KC29 242035Z AUTO 20009KT 10SM BKN110 23/16 A2986 RMK AO1 T02310161
KC29 242015Z AUTO 19013G16KT 10SM SCT023 24/16 A2985 RMK AO1 T02390163
KC29 241955Z AUTO 18011KT 10SM SCT021 SCT042 BKN100 23/17 A2985 RMK AO1 T02340172
KC29 241935Z AUTO 17008KT 10SM SCT031 BKN070 OVC110 22/17 A2987 RMK AO1 T02160171
KC29 241915Z AUTO 22003KT 10SM BKN070 OVC110 22/17 A2990 RMK AO1 T02150167
KC29 241855Z AUTO 24003KT 10SM SCT027 SCT050 OVC070 21/17 A2991 RMK AO1 T02110166
KC29 241835Z AUTO 23006KT 10SM SCT027 SCT055 OVC070 21/17 A2991 RMK AO1 T02120165
KC29 241815Z AUTO 23006KT 10SM SCT023 SCT070 22/16 A2991 RMK AO1 T02200160
KC29 241755Z AUTO 22008KT 10SM SCT034 SCT046 23/16 A2991 RMK AO1 T02280162 10232 20147
KC29 241735Z AUTO 20005KT 10SM SCT032 SCT045 23/16 A2991 RMK AO1 T02250157
KC29 241715Z AUTO 19010G14KT 10SM SCT060 23/16 A2992 RMK AO1 T02260156
KC29 241655Z AUTO 19008G14KT 10SM BKN060 23/15 A2992 RMK AO1 T02300154
KC29 241635Z AUTO 21009KT 10SM OVC060 23/16 A2992 RMK AO1 T02270155
KC29 241615Z AUTO 20004KT 10SM BKN060 22/16 A2993 RMK AO1 T02190156
KC29 241555Z AUTO 22006KT 10SM BKN060 BKN120 21/15 A2993 RMK AO1 T02080153
KC29 241535Z AUTO 22007KT 10SM SCT120 21/15 A2993 RMK AO1 T02060151
KC29 241515Z AUTO 22004KT 10SM CLR 20/15 A2993 RMK AO1 T02040149
KC29 241455Z AUTO 18006KT 10SM CLR 20/15 A2993 RMK AO1 T01970147
KC29 241435Z AUTO 18009KT 10SM CLR 20/15 A2992 RMK AO1 T01960148
KC29 241415Z AUTO 16005KT 10SM CLR 19/15 A2993 RMK AO1 T01850146
KC29 241355Z AUTO 17003KT 10SM CLR 18/14 A2993 RMK AO1 T01750140
KC29 241335Z AUTO 00000KT 10SM CLR 17/14 A2993 RMK AO1 T01660137
KC29 241315Z AUTO 00000KT 10SM CLR 16/14 A2993 RMK AO1 T01610135
KC29 241255Z AUTO 00000KT 10SM CLR 16/13 A2993 RMK AO1 T01600132
KC29 241235Z AUTO 00000KT 10SM CLR 16/13 A2993 RMK AO1 T01620133
KC29 241215Z AUTO 00000KT 10SM SCT046 SCT075 SCT110 15/13 A2993 RMK AO1 T01530133
KC29 241155Z AUTO 00000KT 10SM SCT110 15/13 A2993 RMK AO1 T01480127 10181 20128
KC29 241135Z AUTO 00000KT 10SM CLR 15/13 A2993 RMK AO1 T01530127
KC29 241115Z AUTO 00000KT 10SM CLR 13/12 A2993 RMK AO1 T01310117
KC29 241055Z AUTO 00000KT 10SM CLR 13/12 A2993 RMK AO1 T01340118
KC29 241035Z AUTO 00000KT 10SM CLR 14/11 A2993 RMK AO1 T01360113
KC29 241015Z AUTO 00000KT 10SM CLR 16/13 A2992 RMK AO1 T01560126
KC29 240955Z AUTO 00000KT 10SM CLR 15/13 A2992 RMK AO1 T01520126
KC29 240935Z AUTO 00000KT 10SM CLR 13/11 A2992 RMK AO1 T01290111
KC29 240915Z AUTO 00000KT 10SM CLR 14/12 A2992 RMK AO1 T01430118
KC29 240855Z AUTO 00000KT 10SM CLR 15/12 A2993 RMK AO1 T01470118
KC29 240835Z AUTO 25004KT 10SM CLR 17/13 A2993 RMK AO1 T01670125